Terminal Aerodrome Forecast
Issued by NWS Riverton, WY

Home | Current Version | Previous Version | Text Only | Print | Product List | Glossary On
Versions: 1 2 3 4 5 6 7 8 9 10 11 12 13 14 15
293
FTUS45 KRIW 062340 AAC
TAFRIW
TAF AMD
KRIW 062340Z 0700/0724 03013KT P6SM BKN050
     FM070200 04014G24KT 5SM -RA OVC025
     FM070700 03012G22KT 3SM -RA OVC010
     FM072100 04008KT 3SM -RA OVC008=

USA.gov is the U.S. government's official web portal to all federal, state and local government web resources and services.